Time;durP1;ratioP1;P1;durP2;ratioP2;P2;SDS_P1;SDS_P2;PMS_P1;PMS_P2;Temp;Humidity;BMP_temperature;BMP_pressure;BME280_temperature;BME280_humidity;BME280_pressure;Samples;Min_cycle;Max_cycle;Signal;HPM_P1;HPM_P2
2023/10/21 00:02:13;;;;;;;12.73;5.32;;;;;;;;;;5116062;27;20028;-78
2023/10/21 00:04:38;;;;;;;18.55;5.82;;;;;;;;;;5119665;27;20110;-75
2023/10/21 00:07:03;;;;;;;13.95;4.43;;;;;;;;;;5118720;27;20526;-75
2023/10/21 00:09:29;;;;;;;12.48;4.10;;;;;;;;;;5117606;27;20047;-76
2023/10/21 00:11:54;;;;;;;14.00;5.72;;;;;;;;;;5104842;27;20035;-74
2023/10/21 00:14:20;;;;;;;12.63;5.10;;;;;;;;;;5104025;27;20054;-78
2023/10/21 00:16:45;;;;;;;12.10;4.47;;;;;;;;;;5104440;27;20419;-74
2023/10/21 00:19:10;;;;;;;16.67;4.50;;;;;;;;;;5103363;27;20027;-78
2023/10/21 00:21:36;;;;;;;10.50;4.30;;;;;;;;;;5102388;27;20030;-75
2023/10/21 00:24:02;;;;;;;12.55;5.38;;;;;;;;;;5102770;27;20443;-77
2023/10/21 00:26:28;;;;;;;11.43;6.35;;;;;;;;;;5100866;27;20461;-74
2023/10/21 00:28:53;;;;;;;17.77;7.20;;;;;;;;;;5102467;27;20027;-74
2023/10/21 00:31:19;;;;;;;24.98;9.23;;;;;;;;;;5104841;27;20161;-73
2023/10/21 00:33:44;;;;;;;18.15;8.18;;;;;;;;;;5103782;27;20026;-77
2023/10/21 00:36:09;;;;;;;14.35;6.45;;;;;;;;;;5104561;27;20092;-72
2023/10/21 00:38:35;;;;;;;14.15;6.32;;;;;;;;;;5109361;27;20096;-73
2023/10/21 00:41:00;;;;;;;14.30;6.85;;;;;;;;;;5117707;27;20027;-73
2023/10/21 00:43:39;;;;;;;29.60;10.85;;;;;;;;;;5118338;27;20650;-79
2023/10/21 00:46:11;;;;;;;25.90;12.50;;;;;;;;;;5113309;27;20354;-74
2023/10/21 00:48:37;;;;;;;19.50;9.93;;;;;;;;;;5110724;27;20027;-78
2023/10/21 00:51:02;;;;;;;23.25;11.55;;;;;;;;;;5115755;27;20108;-74
2023/10/21 00:53:28;;;;;;;20.83;11.45;;;;;;;;;;5116564;27;20062;-74
2023/10/21 00:55:53;;;;;;;22.35;11.00;;;;;;;;;;5115499;27;20027;-78
2023/10/21 00:58:19;;;;;;;25.13;12.05;;;;;;;;;;5101736;27;20031;-77
2023/10/21 01:00:44;;;;;;;18.02;8.93;;;;;;;;;;5109169;27;20042;-73
2023/10/21 01:03:10;;;;;;;15.93;8.07;;;;;;;;;;5114461;27;20032;-79
2023/10/21 01:05:35;;;;;;;18.13;9.73;;;;;;;;;;5113218;27;20027;-74
2023/10/21 01:08:00;;;;;;;20.15;10.13;;;;;;;;;;5114362;27;20046;-73
2023/10/21 01:10:26;;;;;;;21.90;10.32;;;;;;;;;;5116597;27;20040;-74
2023/10/21 01:12:51;;;;;;;16.42;8.23;;;;;;;;;;5117079;27;20102;-76
2023/10/21 01:15:17;;;;;;;14.07;5.97;;;;;;;;;;5113993;27;20363;-75
2023/10/21 01:17:48;;;;;;;21.80;9.35;;;;;;;;;;5113548;27;20027;-74
2023/10/21 01:20:13;;;;;;;14.75;8.30;;;;;;;;;;5108683;28;20026;-75
2023/10/21 01:22:39;;;;;;;15.13;5.85;;;;;;;;;;5115260;28;20095;-78
2023/10/21 01:25:06;;;;;;;10.68;5.60;;;;;;;;;;5115968;27;20126;-79
2023/10/21 01:27:32;;;;;;;12.25;4.88;;;;;;;;;;5114747;28;20038;-74
2023/10/21 01:29:57;;;;;;;12.32;4.75;;;;;;;;;;5105918;28;20271;-77
2023/10/21 01:32:24;;;;;;;12.43;4.53;;;;;;;;;;5116986;27;20066;-74
2023/10/21 01:34:49;;;;;;;10.73;4.82;;;;;;;;;;5103826;28;20043;-78
2023/10/21 01:37:15;;;;;;;11.57;5.00;;;;;;;;;;5111399;28;20110;-76
2023/10/21 01:39:41;;;;;;;7.50;4.43;;;;;;;;;;5119296;27;20023;-75
2023/10/21 01:42:06;;;;;;;12.35;4.13;;;;;;;;;;5118957;27;20434;-78
2023/10/21 01:44:31;;;;;;;13.98;4.75;;;;;;;;;;5112538;27;20043;-74
2023/10/21 01:46:57;;;;;;;11.80;4.70;;;;;;;;;;5118884;27;20054;-74
2023/10/21 01:49:22;;;;;;;11.45;4.43;;;;;;;;;;5116421;27;20031;-76
2023/10/21 01:51:47;;;;;;;11.95;4.30;;;;;;;;;;5112411;27;20104;-77
2023/10/21 01:54:13;;;;;;;8.88;3.42;;;;;;;;;;5115283;27;20030;-76
2023/10/21 01:56:38;;;;;;;11.90;4.43;;;;;;;;;;5120287;27;20034;-73
2023/10/21 01:59:04;;;;;;;8.43;4.10;;;;;;;;;;5129013;27;20016;-76
2023/10/21 02:01:29;;;;;;;12.40;4.32;;;;;;;;;;5112930;27;20041;-77
2023/10/21 02:03:54;;;;;;;9.75;3.85;;;;;;;;;;5116848;27;20026;-76
2023/10/21 02:06:20;;;;;;;11.13;4.00;;;;;;;;;;5117876;27;20434;-74
2023/10/21 02:08:45;;;;;;;11.10;3.40;;;;;;;;;;5114608;27;20355;-77
2023/10/21 02:11:10;;;;;;;10.57;3.55;;;;;;;;;;5118505;27;20039;-75
2023/10/21 02:13:36;;;;;;;9.68;3.55;;;;;;;;;;5111677;27;20059;-76
2023/10/21 02:16:01;;;;;;;11.90;3.97;;;;;;;;;;5113508;27;20023;-74
2023/10/21 02:18:27;;;;;;;15.10;5.03;;;;;;;;;;5116477;27;20101;-79
2023/10/21 02:20:52;;;;;;;12.32;4.35;;;;;;;;;;5110021;27;20031;-75
2023/10/21 02:23:17;;;;;;;14.75;4.25;;;;;;;;;;5118298;27;20031;-80
2023/10/21 02:25:43;;;;;;;13.55;4.50;;;;;;;;;;5116218;27;20046;-77
2023/10/21 02:28:09;;;;;;;13.48;4.20;;;;;;;;;;5108593;27;20354;-75
2023/10/21 02:30:36;;;;;;;10.68;4.07;;;;;;;;;;5153150;27;20418;-75
2023/10/21 02:33:03;;;;;;;14.77;5.07;;;;;;;;;;5119586;27;20019;-76
2023/10/21 02:35:31;;;;;;;12.75;5.60;;;;;;;;;;5118017;27;20460;-75
2023/10/21 02:37:57;;;;;;;13.88;4.82;;;;;;;;;;5108078;27;20026;-79
2023/10/21 02:40:23;;;;;;;11.60;3.95;;;;;;;;;;5115344;27;20027;-75
2023/10/21 02:42:49;;;;;;;7.38;3.17;;;;;;;;;;5114846;27;20029;-77
2023/10/21 02:45:14;;;;;;;10.65;3.47;;;;;;;;;;5110662;27;20122;-77
2023/10/21 02:47:39;;;;;;;10.85;3.40;;;;;;;;;;5111753;27;20080;-79
2023/10/21 02:50:05;;;;;;;11.05;3.38;;;;;;;;;;5119364;27;20052;-75
2023/10/21 02:52:30;;;;;;;11.10;3.67;;;;;;;;;;5118822;27;20030;-75
2023/10/21 02:54:55;;;;;;;12.55;3.85;;;;;;;;;;5115196;27;20019;-74
2023/10/21 02:57:21;;;;;;;9.50;3.50;;;;;;;;;;5117439;27;20039;-74
2023/10/21 02:59:46;;;;;;;10.20;3.50;;;;;;;;;;5105876;27;20359;-75
2023/10/21 03:02:13;;;;;;;10.50;4.00;;;;;;;;;;5114042;27;20027;-78
2023/10/21 03:04:39;;;;;;;8.65;3.60;;;;;;;;;;5116679;27;21225;-75
2023/10/21 03:07:04;;;;;;;9.95;3.40;;;;;;;;;;5117550;27;20031;-82
2023/10/21 03:09:29;;;;;;;8.82;3.22;;;;;;;;;;5115615;27;20061;-75
2023/10/21 03:11:55;;;;;;;13.43;3.22;;;;;;;;;;5117184;27;20090;-74
2023/10/21 03:14:20;;;;;;;6.95;3.30;;;;;;;;;;5115086;27;20016;-76
2023/10/21 03:16:48;;;;;;;9.35;3.33;;;;;;;;;;5114335;27;20027;-77
2023/10/21 03:19:13;;;;;;;8.88;3.80;;;;;;;;;;5108015;27;20054;-77
2023/10/21 03:21:39;;;;;;;17.95;3.58;;;;;;;;;;5118541;27;20062;-76
2023/10/21 03:24:04;;;;;;;7.95;3.45;;;;;;;;;;5119083;27;20034;-76
2023/10/21 03:26:29;;;;;;;10.50;3.53;;;;;;;;;;5115826;27;20042;-76
2023/10/21 03:28:55;;;;;;;8.73;3.33;;;;;;;;;;5105827;27;20030;-76
2023/10/21 03:31:20;;;;;;;9.77;3.75;;;;;;;;;;5116043;27;20039;-79
2023/10/21 03:33:45;;;;;;;7.43;3.22;;;;;;;;;;5113783;27;20118;-76
2023/10/21 03:36:11;;;;;;;10.38;3.50;;;;;;;;;;5118112;27;20071;-78
2023/10/21 03:38:37;;;;;;;12.52;3.53;;;;;;;;;;5113971;27;20410;-75
2023/10/21 03:41:04;;;;;;;8.60;3.42;;;;;;;;;;5116819;27;20070;-78
2023/10/21 03:43:29;;;;;;;14.57;3.53;;;;;;;;;;5119310;27;20023;-75
2023/10/21 03:45:55;;;;;;;9.30;3.30;;;;;;;;;;5115015;27;20083;-74
2023/10/21 03:48:21;;;;;;;13.07;3.80;;;;;;;;;;5115969;27;20011;-79
2023/10/21 03:50:47;;;;;;;14.13;6.40;;;;;;;;;;5119219;27;20050;-81
2023/10/21 03:53:14;;;;;;;11.45;5.03;;;;;;;;;;5116458;27;20039;-74
2023/10/21 03:55:39;;;;;;;14.10;3.95;;;;;;;;;;5115621;27;20027;-75
2023/10/21 03:58:05;;;;;;;12.05;3.85;;;;;;;;;;5117750;27;20024;-76
2023/10/21 04:00:30;;;;;;;10.75;3.78;;;;;;;;;;5115950;27;20037;-73
2023/10/21 04:02:55;;;;;;;9.57;3.47;;;;;;;;;;5118828;27;20139;-78
2023/10/21 04:05:21;;;;;;;11.27;3.17;;;;;;;;;;5107322;27;20062;-75
2023/10/21 04:07:46;;;;;;;11.43;3.75;;;;;;;;;;5112842;27;20063;-78
2023/10/21 04:10:12;;;;;;;15.73;3.67;;;;;;;;;;5116011;27;20034;-74
2023/10/21 04:12:39;;;;;;;8.07;3.42;;;;;;;;;;5115158;27;20043;-75
2023/10/21 04:15:05;;;;;;;8.40;3.95;;;;;;;;;;5114081;27;20026;-77
2023/10/21 04:17:30;;;;;;;12.80;4.32;;;;;;;;;;5119354;27;20083;-75
2023/10/21 04:19:56;;;;;;;9.20;3.80;;;;;;;;;;5118273;27;20084;-74
2023/10/21 04:22:21;;;;;;;10.45;3.25;;;;;;;;;;5115607;27;20031;-76
2023/10/21 04:24:46;;;;;;;10.98;3.75;;;;;;;;;;5117757;27;20049;-77
2023/10/21 04:27:12;;;;;;;11.63;3.85;;;;;;;;;;5116405;27;20034;-75
2023/10/21 04:29:37;;;;;;;11.10;4.03;;;;;;;;;;5115754;27;20044;-75
2023/10/21 04:32:02;;;;;;;11.77;4.70;;;;;;;;;;5116370;27;20975;-75
2023/10/21 04:34:28;;;;;;;15.75;5.45;;;;;;;;;;5116326;27;20426;-75
2023/10/21 04:37:02;;;;;;;11.13;4.20;;;;;;;;;;5122093;27;20387;-75
2023/10/21 04:39:28;;;;;;;11.20;3.33;;;;;;;;;;5111622;28;20039;-77
2023/10/21 04:41:54;;;;;;;9.88;3.80;;;;;;;;;;5116684;27;20046;-74
2023/10/21 04:44:20;;;;;;;10.60;3.67;;;;;;;;;;5115784;27;20518;-76
2023/10/21 04:46:46;;;;;;;10.07;3.63;;;;;;;;;;5115183;27;20023;-79
2023/10/21 04:49:12;;;;;;;9.23;3.70;;;;;;;;;;5115621;27;20020;-76
2023/10/21 04:51:37;;;;;;;16.73;3.80;;;;;;;;;;5115405;27;20353;-79
2023/10/21 04:54:03;;;;;;;9.35;3.72;;;;;;;;;;5114807;28;20035;-75
2023/10/21 04:56:29;;;;;;;7.53;3.65;;;;;;;;;;5111995;27;20073;-74
2023/10/21 04:58:54;;;;;;;9.57;3.88;;;;;;;;;;5114528;27;20028;-75
2023/10/21 05:01:19;;;;;;;10.52;3.53;;;;;;;;;;5105515;27;20024;-74
2023/10/21 05:03:45;;;;;;;11.23;3.60;;;;;;;;;;5107813;27;20038;-74
2023/10/21 05:06:10;;;;;;;10.02;4.40;;;;;;;;;;5111164;28;20019;-75
2023/10/21 05:08:35;;;;;;;12.35;3.80;;;;;;;;;;5114001;28;20951;-82
2023/10/21 05:11:01;;;;;;;10.05;4.45;;;;;;;;;;5114687;27;20111;-77
2023/10/21 05:13:26;;;;;;;12.15;4.20;;;;;;;;;;5114842;27;20031;-75
2023/10/21 05:15:51;;;;;;;11.25;4.18;;;;;;;;;;5113021;27;20074;-78
2023/10/21 05:18:17;;;;;;;9.55;3.90;;;;;;;;;;5113182;28;20114;-77
2023/10/21 05:20:42;;;;;;;10.38;4.43;;;;;;;;;;5115148;27;20034;-74
2023/10/21 05:23:08;;;;;;;11.30;4.68;;;;;;;;;;5113809;28;20028;-75
2023/10/21 05:25:33;;;;;;;14.05;4.70;;;;;;;;;;5111404;28;20053;-75
2023/10/21 05:27:59;;;;;;;11.32;4.93;;;;;;;;;;5114322;27;20027;-81
2023/10/21 05:30:24;;;;;;;11.90;4.78;;;;;;;;;;5112631;28;20035;-76
2023/10/21 05:32:49;;;;;;;11.85;4.90;;;;;;;;;;5113097;27;20038;-76
2023/10/21 05:35:15;;;;;;;14.65;5.72;;;;;;;;;;5113030;28;20428;-75
2023/10/21 05:37:40;;;;;;;48.58;22.70;;;;;;;;;;5112277;28;20061;-76
2023/10/21 05:40:06;;;;;;;23.83;10.50;;;;;;;;;;5105038;28;20030;-77
2023/10/21 05:42:32;;;;;;;24.05;11.73;;;;;;;;;;5096631;28;20171;-75
2023/10/21 05:44:58;;;;;;;15.65;5.70;;;;;;;;;;5098485;27;20357;-74
2023/10/21 05:47:23;;;;;;;14.77;5.30;;;;;;;;;;5075208;28;20020;-78
2023/10/21 05:49:49;;;;;;;31.95;13.35;;;;;;;;;;5072491;28;20143;-75
2023/10/21 05:52:17;;;;;;;19.17;9.00;;;;;;;;;;5072611;28;20157;-75
2023/10/21 05:54:42;;;;;;;34.75;15.02;;;;;;;;;;5068598;28;20020;-74
2023/10/21 05:57:07;;;;;;;22.13;10.98;;;;;;;;;;5072386;28;20452;-74
2023/10/21 05:59:33;;;;;;;18.45;8.55;;;;;;;;;;5071487;28;20343;-74
2023/10/21 06:01:58;;;;;;;15.20;7.30;;;;;;;;;;5073305;28;20036;-78
2023/10/21 06:04:24;;;;;;;12.48;6.70;;;;;;;;;;5070124;28;20028;-75
2023/10/21 06:06:54;;;;;;;12.85;5.60;;;;;;;;;;5067963;28;20036;-74
2023/10/21 06:09:23;;;;;;;11.82;5.70;;;;;;;;;;5070421;28;20026;-79
2023/10/21 06:11:48;;;;;;;;;;;;;;;;;;5073524;28;20031;-74
2023/10/21 06:14:14;;;;;;;13.83;6.90;;;;;;;;;;5071075;28;19908;-76
2023/10/21 06:16:39;;;;;;;10.65;5.70;;;;;;;;;;5073088;28;20290;-81
2023/10/21 06:19:04;;;;;;;11.02;6.10;;;;;;;;;;5072434;28;20056;-74
2023/10/21 06:21:30;;;;;;;11.45;5.70;;;;;;;;;;5084080;28;20032;-75
2023/10/21 06:23:55;;;;;;;12.30;5.55;;;;;;;;;;5101972;28;20031;-78
2023/10/21 06:26:21;;;;;;;13.32;7.18;;;;;;;;;;5084853;27;20106;-77
2023/10/21 06:28:46;;;;;;;16.52;7.88;;;;;;;;;;5086752;28;20427;-74
2023/10/21 06:31:12;;;;;;;18.00;6.57;;;;;;;;;;5073149;28;20462;-75
2023/10/21 06:33:37;;;;;;;14.82;7.68;;;;;;;;;;5072678;27;20041;-74
2023/10/21 06:36:03;;;;;;;14.30;7.60;;;;;;;;;;5072188;28;20063;-74
2023/10/21 06:38:28;;;;;;;19.77;7.93;;;;;;;;;;5074285;28;20111;-75
2023/10/21 06:40:54;;;;;;;17.73;6.90;;;;;;;;;;5074215;28;20047;-75
2023/10/21 06:43:19;;;;;;;136.52;112.47;;;;;;;;;;5075763;28;20033;-78
2023/10/21 06:45:45;;;;;;;37.45;28.13;;;;;;;;;;5075715;28;20107;-77
2023/10/21 06:48:10;;;;;;;17.65;8.73;;;;;;;;;;5092345;28;20061;-75
2023/10/21 06:50:35;;;;;;;10.20;4.72;;;;;;;;;;5096102;28;20015;-74
2023/10/21 06:53:01;;;;;;;13.45;4.78;;;;;;;;;;5071984;28;20032;-73
2023/10/21 06:55:26;;;;;;;13.60;6.22;;;;;;;;;;5070075;28;20036;-73
2023/10/21 06:57:52;;;;;;;13.02;6.70;;;;;;;;;;5075170;28;20036;-73
2023/10/21 07:00:17;;;;;;;14.35;5.97;;;;;;;;;;5094909;28;20032;-77
2023/10/21 07:02:43;;;;;;;17.08;7.88;;;;;;;;;;5090625;28;20023;-74
2023/10/21 07:05:11;;;;;;;19.13;9.00;;;;;;;;;;5071377;28;20023;-77
2023/10/21 07:07:38;;;;;;;17.60;7.63;;;;;;;;;;5075872;28;20451;-75
2023/10/21 07:10:03;;;;;;;12.48;7.90;;;;;;;;;;5070734;28;20146;-73
2023/10/21 07:12:29;;;;;;;19.13;8.05;;;;;;;;;;5072022;28;20103;-75
2023/10/21 07:14:54;;;;;;;15.70;6.63;;;;;;;;;;5074900;28;20023;-74
2023/10/21 07:17:19;;;;;;;12.43;6.22;;;;;;;;;;5071274;28;20024;-76
2023/10/21 07:19:45;;;;;;;21.20;5.93;;;;;;;;;;5072750;28;20073;-75
2023/10/21 07:22:10;;;;;;;12.18;5.55;;;;;;;;;;5070747;28;20047;-73
2023/10/21 07:24:36;;;;;;;14.73;5.20;;;;;;;;;;5069343;28;20039;-74
2023/10/21 07:27:02;;;;;;;8.68;4.10;;;;;;;;;;5068910;28;20477;-74
2023/10/21 07:29:27;;;;;;;11.20;6.22;;;;;;;;;;5077224;28;20461;-73
2023/10/21 07:31:52;;;;;;;8.95;3.95;;;;;;;;;;5091017;28;20039;-79
2023/10/21 07:34:17;;;;;;;15.90;5.15;;;;;;;;;;5085997;28;20040;-74
2023/10/21 07:36:43;;;;;;;11.23;4.10;;;;;;;;;;5095867;28;20076;-76
2023/10/21 07:39:08;;;;;;;19.05;6.07;;;;;;;;;;5093467;28;20027;-77
2023/10/21 07:41:34;;;;;;;11.50;3.38;;;;;;;;;;5097668;28;20070;-75
2023/10/21 07:43:59;;;;;;;12.95;5.05;;;;;;;;;;5096548;28;20023;-75
2023/10/21 07:46:25;;;;;;;15.48;4.32;;;;;;;;;;5097335;28;20354;-77
2023/10/21 07:48:51;;;;;;;13.10;4.80;;;;;;;;;;5085013;28;20046;-74
2023/10/21 07:51:16;;;;;;;12.80;5.50;;;;;;;;;;5071281;28;20019;-77
2023/10/21 07:53:42;;;;;;;19.02;6.78;;;;;;;;;;5073603;28;20113;-73
2023/10/21 07:56:07;;;;;;;15.25;5.63;;;;;;;;;;5072206;28;20561;-76
2023/10/21 07:58:32;;;;;;;13.85;5.00;;;;;;;;;;5069979;28;20713;-75
2023/10/21 08:00:58;;;;;;;15.55;6.90;;;;;;;;;;5071354;28;20020;-77
2023/10/21 08:03:23;;;;;;;11.43;5.28;;;;;;;;;;5073584;28;20163;-76
2023/10/21 08:05:49;;;;;;;12.63;4.85;;;;;;;;;;5073338;28;20066;-76
2023/10/21 08:08:14;;;;;;;8.77;3.90;;;;;;;;;;5089810;28;20086;-76
2023/10/21 08:10:39;;;;;;;10.98;4.25;;;;;;;;;;5096889;28;20615;-76
2023/10/21 08:13:05;;;;;;;12.82;4.70;;;;;;;;;;5089533;28;20352;-77
2023/10/21 08:15:31;;;;;;;8.65;4.40;;;;;;;;;;5087654;28;20090;-78
2023/10/21 08:17:56;;;;;;;11.43;4.88;;;;;;;;;;5096809;28;20027;-78
2023/10/21 08:20:22;;;;;;;10.20;3.92;;;;;;;;;;5097561;28;20032;-78
2023/10/21 08:22:47;;;;;;;9.52;3.78;;;;;;;;;;5094955;28;20027;-78
2023/10/21 08:25:13;;;;;;;12.90;4.05;;;;;;;;;;5099071;28;20130;-76
2023/10/21 08:27:39;;;;;;;11.95;3.40;;;;;;;;;;5100779;27;20038;-81
2023/10/21 08:30:05;;;;;;;11.18;3.53;;;;;;;;;;5096296;28;20687;-78
2023/10/21 08:32:30;;;;;;;12.43;3.65;;;;;;;;;;5082515;28;20110;-78
2023/10/21 08:34:56;;;;;;;10.65;3.65;;;;;;;;;;5096762;28;20207;-78
2023/10/21 08:37:21;;;;;;;12.63;3.83;;;;;;;;;;5097965;28;20088;-78
2023/10/21 08:39:50;;;;;;;11.15;3.88;;;;;;;;;;5080787;28;20020;-77
2023/10/21 08:42:17;;;;;;;13.38;3.60;;;;;;;;;;5083173;28;20032;-78
2023/10/21 08:44:43;;;;;;;8.88;3.15;;;;;;;;;;5087743;28;20016;-78
2023/10/21 08:47:10;;;;;;;7.70;3.33;;;;;;;;;;5078253;28;20117;-79
2023/10/21 08:49:36;;;;;;;10.25;3.28;;;;;;;;;;5073871;28;20038;-81
2023/10/21 08:52:02;;;;;;;8.65;3.17;;;;;;;;;;5077666;28;20098;-79
2023/10/21 08:54:28;;;;;;;12.85;3.40;;;;;;;;;;5084237;28;20926;-81
2023/10/21 08:56:53;;;;;;;10.77;4.15;;;;;;;;;;5082534;28;20400;-79
2023/10/21 08:59:19;;;;;;;12.05;3.80;;;;;;;;;;5087660;28;20028;-77
2023/10/21 09:01:46;;;;;;;8.00;3.40;;;;;;;;;;5095690;28;20027;-80
2023/10/21 09:04:12;;;;;;;8.48;3.08;;;;;;;;;;5094910;28;20104;-77
2023/10/21 09:06:52;;;;;;;8.98;3.45;;;;;;;;;;5095167;28;20035;-83
2023/10/21 09:09:21;;;;;;;11.82;5.07;;;;;;;;;;5094892;28;20047;-77
2023/10/21 09:11:47;;;;;;;13.25;4.30;;;;;;;;;;5094971;28;20110;-81
2023/10/21 09:14:13;;;;;;;9.00;3.65;;;;;;;;;;5086421;28;20160;-79
2023/10/21 09:16:40;;;;;;;9.27;3.40;;;;;;;;;;5081262;28;20047;-77
2023/10/21 09:19:10;;;;;;;10.77;3.53;;;;;;;;;;5093817;28;20536;-78
2023/10/21 09:21:37;;;;;;;13.85;5.70;;;;;;;;;;5079043;28;20015;-81
2023/10/21 09:24:06;;;;;;;10.82;4.05;;;;;;;;;;5084107;28;20035;-85
2023/10/21 09:26:50;;;;;;;10.50;4.75;;;;;;;;;;5083423;28;20047;-78
2023/10/21 09:29:18;;;;;;;13.70;6.43;;;;;;;;;;5080806;28;20225;-79
2023/10/21 09:31:48;;;;;;;20.20;8.88;;;;;;;;;;5082136;28;20485;-76
2023/10/21 09:34:24;;;;;;;26.00;12.68;;;;;;;;;;5084060;28;20024;-81
2023/10/21 09:36:53;;;;;;;12.23;4.38;;;;;;;;;;5085371;28;20066;-76
2023/10/21 09:39:19;;;;;;;13.25;5.18;;;;;;;;;;5083258;28;20358;-79
2023/10/21 09:41:45;;;;;;;13.60;5.32;;;;;;;;;;5084745;27;20031;-77
2023/10/21 09:44:13;;;;;;;15.40;5.20;;;;;;;;;;5081113;28;20105;-77
2023/10/21 09:46:43;;;;;;;14.40;5.68;;;;;;;;;;5085278;28;20039;-80
2023/10/21 09:49:10;;;;;;;17.40;8.85;;;;;;;;;;5082634;28;20058;-80
2023/10/21 09:51:40;;;;;;;12.20;4.50;;;;;;;;;;5094766;28;20051;-75
2023/10/21 09:54:10;;;;;;;13.85;6.82;;;;;;;;;;5100584;28;20449;-77
2023/10/21 09:56:37;;;;;;;13.45;5.65;;;;;;;;;;5099078;28;20015;-78
2023/10/21 09:59:03;;;;;;;18.00;7.15;;;;;;;;;;5079899;28;20063;-74
2023/10/21 10:01:28;;;;;;;13.80;5.68;;;;;;;;;;5069869;28;20019;-75
2023/10/21 10:03:55;;;;;;;13.82;4.25;;;;;;;;;;5071812;28;20486;-73
2023/10/21 10:06:21;;;;;;;10.68;5.63;;;;;;;;;;5070738;28;20028;-75
2023/10/21 10:08:47;;;;;;;11.70;4.35;;;;;;;;;;5081009;28;20093;-76
2023/10/21 10:11:15;;;;;;;14.85;4.63;;;;;;;;;;5096111;28;20023;-75
2023/10/21 10:13:46;;;;;;;13.00;4.22;;;;;;;;;;5100093;28;20031;-77
2023/10/21 10:16:19;;;;;;;11.20;3.90;;;;;;;;;;5093256;28;20056;-76
2023/10/21 10:18:50;;;;;;;14.27;4.00;;;;;;;;;;5092761;28;20350;-82
2023/10/21 10:21:17;;;;;;;17.40;4.63;;;;;;;;;;5084190;28;20028;-77
2023/10/21 10:23:48;;;;;;;12.70;3.75;;;;;;;;;;5097064;28;20030;-82
2023/10/21 10:26:15;;;;;;;15.30;5.45;;;;;;;;;;5101342;28;20431;-80
2023/10/21 10:28:41;;;;;;;20.20;9.45;;;;;;;;;;5100319;28;20023;-81
2023/10/21 10:31:07;;;;;;;14.73;6.75;;;;;;;;;;5100200;28;20495;-78
2023/10/21 10:33:33;;;;;;;17.98;7.10;;;;;;;;;;5100441;28;20055;-77
2023/10/21 10:36:00;;;;;;;18.27;5.72;;;;;;;;;;5100161;28;20060;-78
2023/10/21 10:38:26;;;;;;;16.00;5.93;;;;;;;;;;5095874;28;20502;-76
2023/10/21 10:40:52;;;;;;;15.23;6.03;;;;;;;;;;5084475;28;20139;-77
2023/10/21 10:43:20;;;;;;;13.25;5.75;;;;;;;;;;5089673;28;20077;-78
2023/10/21 10:45:47;;;;;;;16.20;4.93;;;;;;;;;;5101406;28;20150;-78
2023/10/21 10:48:13;;;;;;;11.63;4.40;;;;;;;;;;5097446;28;20023;-77
2023/10/21 10:50:38;;;;;;;17.42;5.03;;;;;;;;;;5095105;28;20381;-77
2023/10/21 10:53:14;;;;;;;18.83;4.85;;;;;;;;;;5098177;28;20362;-76
2023/10/21 10:55:43;;;;;;;18.02;5.00;;;;;;;;;;5093915;28;20031;-78
2023/10/21 10:58:10;;;;;;;24.70;6.10;;;;;;;;;;5093894;28;20034;-76
2023/10/21 11:00:38;;;;;;;19.80;6.00;;;;;;;;;;5095570;28;20039;-77
2023/10/21 11:03:05;;;;;;;30.20;7.35;;;;;;;;;;5098521;28;20028;-77
2023/10/21 11:05:30;;;;;;;18.52;5.72;;;;;;;;;;5095889;28;20024;-77
2023/10/21 11:07:56;;;;;;;21.38;5.80;;;;;;;;;;5098552;28;20035;-76
2023/10/21 11:10:22;;;;;;;22.73;9.73;;;;;;;;;;5098428;28;20026;-77
2023/10/21 11:12:48;;;;;;;21.08;5.55;;;;;;;;;;5098618;28;20055;-77
2023/10/21 11:15:13;;;;;;;22.27;4.82;;;;;;;;;;5097179;28;20035;-76
2023/10/21 11:17:39;;;;;;;22.38;5.93;;;;;;;;;;5096147;28;20039;-76
2023/10/21 11:20:07;;;;;;;21.45;6.10;;;;;;;;;;5099250;28;20050;-79
2023/10/21 11:22:33;;;;;;;25.92;6.13;;;;;;;;;;5096851;28;20033;-76
2023/10/21 11:24:58;;;;;;;18.08;4.78;;;;;;;;;;5097719;28;20023;-78
2023/10/21 11:27:24;;;;;;;15.23;5.32;;;;;;;;;;5099305;28;20454;-76
2023/10/21 11:29:51;;;;;;;17.30;5.10;;;;;;;;;;5099194;28;20423;-77
2023/10/21 11:32:23;;;;;;;20.30;5.65;;;;;;;;;;5099737;28;20099;-76
2023/10/21 11:34:49;;;;;;;21.92;5.53;;;;;;;;;;5099180;28;20019;-77
2023/10/21 11:37:14;;;;;;;25.25;6.35;;;;;;;;;;5097347;28;20044;-77
2023/10/21 11:39:40;;;;;;;20.98;6.05;;;;;;;;;;5097669;28;20449;-77
2023/10/21 11:42:14;;;;;;;24.75;5.50;;;;;;;;;;5099062;28;20039;-76
2023/10/21 11:44:39;;;;;;;19.38;5.70;;;;;;;;;;5097469;28;20024;-76
2023/10/21 11:47:06;;;;;;;20.67;5.60;;;;;;;;;;5096551;28;20028;-76
2023/10/21 11:49:35;;;;;;;23.55;5.60;;;;;;;;;;5097353;28;20034;-76
2023/10/21 11:52:00;;;;;;;22.17;5.70;;;;;;;;;;5098058;28;20047;-77
2023/10/21 12:15:51;;;;;;;21.90;6.70;;;;;;;;;;5051503;28;20095;-76
2023/10/21 12:39:37;;;;;;;22.33;6.93;;;;;;;;;;5083704;28;20409;-76
2023/10/21 12:42:17;;;;;;;;;;;;;;;;;;5074720;28;20475;-77
2023/10/21 12:44:51;;;;;;;29.45;6.82;;;;;;;;;;5075190;28;19944;-77
2023/10/21 12:47:17;;;;;;;21.77;7.90;;;;;;;;;;5075496;28;20028;-76
2023/10/21 12:49:43;;;;;;;27.60;10.18;;;;;;;;;;5087203;28;20080;-76
2023/10/21 12:52:11;;;;;;;27.65;11.40;;;;;;;;;;5094330;28;20045;-75
2023/10/21 12:54:36;;;;;;;26.63;11.60;;;;;;;;;;5082151;28;20015;-78
2023/10/21 12:57:02;;;;;;;116.85;74.82;;;;;;;;;;5072868;28;20096;-76
2023/10/21 12:59:28;;;;;;;38.80;22.13;;;;;;;;;;5077384;28;20498;-76
2023/10/21 13:01:53;;;;;;;33.13;19.75;;;;;;;;;;5090145;28;20028;-77
2023/10/21 13:04:19;;;;;;;30.35;11.18;;;;;;;;;;5081272;28;20025;-78
2023/10/21 13:06:47;;;;;;;26.25;13.15;;;;;;;;;;5085538;28;20028;-78
2023/10/21 13:09:24;;;;;;;26.45;10.68;;;;;;;;;;5079541;28;20027;-76
2023/10/21 13:11:52;;;;;;;28.77;11.05;;;;;;;;;;5081880;28;20188;-75
2023/10/21 13:14:18;;;;;;;26.23;12.00;;;;;;;;;;5080241;28;20035;-75
2023/10/21 13:16:45;;;;;;;25.58;11.88;;;;;;;;;;5090453;28;20043;-76
2023/10/21 13:19:11;;;;;;;27.40;10.35;;;;;;;;;;5082624;28;20024;-77
2023/10/21 13:21:36;;;;;;;19.25;8.38;;;;;;;;;;5078993;28;20026;-83
2023/10/21 13:24:04;;;;;;;30.48;13.98;;;;;;;;;;5082119;28;20019;-80
2023/10/21 13:26:30;;;;;;;40.97;22.75;;;;;;;;;;5076267;28;20447;-76
2023/10/21 13:28:56;;;;;;;30.40;14.13;;;;;;;;;;5076526;28;20119;-80
2023/10/21 13:31:22;;;;;;;27.38;12.60;;;;;;;;;;5078266;28;20103;-80
2023/10/21 13:33:47;;;;;;;32.00;9.27;;;;;;;;;;5082574;28;20125;-78
2023/10/21 13:36:12;;;;;;;25.92;9.50;;;;;;;;;;5094579;27;20059;-78
2023/10/21 13:38:38;;;;;;;26.88;10.27;;;;;;;;;;5078278;28;20134;-78
2023/10/21 13:41:05;;;;;;;27.00;12.55;;;;;;;;;;5100378;28;20024;-81
2023/10/21 13:43:30;;;;;;;27.95;14.70;;;;;;;;;;5100892;28;20027;-79
2023/10/21 13:45:55;;;;;;;34.45;17.27;;;;;;;;;;5099012;28;20041;-81
2023/10/21 13:48:21;;;;;;;28.13;16.10;;;;;;;;;;5099838;28;20339;-79
2023/10/21 13:50:50;;;;;;;30.45;17.20;;;;;;;;;;5102162;28;20028;-79
2023/10/21 13:53:17;;;;;;;33.30;16.52;;;;;;;;;;5100150;28;20059;-78
2023/10/21 13:55:43;;;;;;;22.30;10.30;;;;;;;;;;5091357;28;20042;-77
2023/10/21 13:58:13;;;;;;;21.77;9.07;;;;;;;;;;5099353;28;20024;-78
2023/10/21 14:00:38;;;;;;;21.45;10.00;;;;;;;;;;5100779;28;20442;-80
2023/10/21 14:03:09;;;;;;;26.90;9.23;;;;;;;;;;5102143;28;20127;-76
2023/10/21 14:06:07;;;;;;;32.95;11.30;;;;;;;;;;5100131;28;20096;-80
2023/10/21 14:08:32;;;;;;;22.23;10.32;;;;;;;;;;5035170;28;20115;-79
2023/10/21 14:11:06;;;;;;;24.52;11.60;;;;;;;;;;5030955;28;20063;-79
2023/10/21 14:13:33;;;;;;;21.92;12.57;;;;;;;;;;5017599;28;20059;-79
2023/10/21 14:15:59;;;;;;;24.25;11.82;;;;;;;;;;5012328;28;20036;-79
2023/10/21 14:18:25;;;;;;;20.23;7.93;;;;;;;;;;5032391;28;20124;-79
2023/10/21 14:20:51;;;;;;;17.05;4.95;;;;;;;;;;5030278;28;23247;-79
2023/10/21 14:23:20;;;;;;;20.45;5.50;;;;;;;;;;5033840;28;21092;-79
2023/10/21 14:25:49;;;;;;;17.45;5.10;;;;;;;;;;5033815;28;20109;-82
2023/10/21 14:28:15;;;;;;;15.10;4.10;;;;;;;;;;5024417;28;20427;-79
2023/10/21 14:30:46;;;;;;;16.25;5.03;;;;;;;;;;5033673;28;20521;-77
2023/10/21 14:33:12;;;;;;;15.40;4.57;;;;;;;;;;5019967;28;20413;-80
2023/10/21 14:35:40;;;;;;;13.55;4.15;;;;;;;;;;5037188;28;20515;-80
2023/10/21 14:38:07;;;;;;;12.95;4.28;;;;;;;;;;5048337;28;20044;-78
2023/10/21 14:40:32;;;;;;;17.73;4.50;;;;;;;;;;5043700;28;20142;-80
2023/10/21 14:42:58;;;;;;;15.68;4.05;;;;;;;;;;5027571;28;20115;-78
2023/10/21 14:45:23;;;;;;;11.75;3.42;;;;;;;;;;5075432;28;21106;-80
2023/10/21 14:47:48;;;;;;;17.10;3.85;;;;;;;;;;5083763;28;20038;-78
2023/10/21 14:50:14;;;;;;;14.38;4.22;;;;;;;;;;5083786;28;20031;-79
2023/10/21 14:52:39;;;;;;;15.00;4.55;;;;;;;;;;5084635;28;20027;-77
2023/10/21 14:55:08;;;;;;;14.68;4.38;;;;;;;;;;5098595;28;20065;-79
2023/10/21 14:57:34;;;;;;;11.25;3.78;;;;;;;;;;5099663;28;20059;-79
2023/10/21 15:00:00;;;;;;;15.05;4.63;;;;;;;;;;5095183;28;20099;-79
2023/10/21 15:02:25;;;;;;;10.95;4.38;;;;;;;;;;5082817;28;20178;-79
2023/10/21 15:04:50;;;;;;;17.02;3.85;;;;;;;;;;5095057;28;20027;-78
2023/10/21 15:07:16;;;;;;;16.55;4.72;;;;;;;;;;5090910;28;20027;-77
2023/10/21 15:09:43;;;;;;;16.02;4.43;;;;;;;;;;5092998;28;20019;-74